Time;durP1;ratioP1;P1;durP2;ratioP2;P2;SDS_P1;SDS_P2;PMS_P1;PMS_P2;Temp;Humidity;BMP_temperature;BMP_pressure;BME280_temperature;BME280_humidity;BME280_pressure;Samples;Min_cycle;Max_cycle;Signal;HPM_P1;HPM_P2
2022/06/03 00:01:58;;;;;;;4.05;1.90;;;20.30;50.30;;;;;;5117169;28;20024;-73
2022/06/03 00:05:11;;;;;;;1.70;1.52;;;20.20;50.70;;;;;;5116634;28;20061;-73
2022/06/03 00:07:49;;;;;;;1.90;1.70;;;20.10;50.80;;;;;;5098601;28;20406;-73
2022/06/03 00:10:52;;;;;;;2.08;1.80;;;20.10;51.10;;;;;;5116727;28;20019;-73
2022/06/03 00:13:27;;;;;;;2.45;1.80;;;20.00;51.20;;;;;;5097152;28;20024;-73
2022/06/03 00:16:20;;;;;;;2.95;1.80;;;20.00;51.40;;;;;;5115915;28;20054;-73
2022/06/03 00:19:20;;;;;;;5.85;1.88;;;19.90;51.50;;;;;;5098334;28;20030;-73
2022/06/03 00:22:04;;;;;;;2.53;1.63;;;19.90;51.70;;;;;;5098245;28;20368;-73
2022/06/03 00:25:07;;;;;;;2.67;1.88;;;19.90;51.90;;;;;;5116149;28;20527;-72
2022/06/03 00:27:36;;;;;;;2.63;1.83;;;19.90;52.00;;;;;;5116356;28;20106;-72
2022/06/03 00:30:26;;;;;;;2.53;1.65;;;19.80;52.10;;;;;;5115447;28;20054;-73
2022/06/03 00:33:25;;;;;;;1.65;1.52;;;19.80;52.50;;;;;;5116155;28;20024;-73
2022/06/03 00:36:06;;;;;;;2.10;1.90;;;19.80;52.10;;;;;;5011847;28;20505;-73
2022/06/03 00:38:50;;;;;;;3.47;2.00;;;19.70;52.40;;;;;;5116179;28;20080;-73
2022/06/03 00:41:59;;;;;;;1.75;1.65;;;19.70;52.50;;;;;;5115491;28;20102;-73
2022/06/03 00:44:56;;;;;;;2.65;2.10;;;19.60;52.50;;;;;;5115493;28;20039;-72
2022/06/03 00:47:51;;;;;;;3.67;1.80;;;19.60;52.70;;;;;;5116004;28;20027;-73
2022/06/03 00:50:35;;;;;;;5.30;2.05;;;19.60;52.90;;;;;;5113653;28;20024;-73
2022/06/03 00:53:10;;;;;;;3.33;2.20;;;19.50;53.00;;;;;;5077112;28;20436;-73
2022/06/03 00:56:04;;;;;;;3.88;2.00;;;19.50;53.10;;;;;;5077060;28;20020;-72
2022/06/03 00:58:57;;;;;;;4.13;2.37;;;19.50;53.30;;;;;;5110356;28;20024;-72
2022/06/03 01:01:25;;;;;;;3.33;2.00;;;19.40;53.50;;;;;;5114558;28;20046;-73
2022/06/03 01:04:29;;;;;;;2.72;1.95;;;19.40;53.30;;;;;;5114757;28;20028;-73
2022/06/03 01:08:00;;;;;;;2.33;1.80;;;19.40;53.50;;;;;;4996174;28;20068;-73
2022/06/03 01:10:49;;;;;;;2.70;1.70;;;19.30;53.70;;;;;;5058890;28;20428;-72
2022/06/03 01:13:53;;;;;;;4.20;1.92;;;19.30;53.70;;;;;;5096463;28;20085;-73
2022/06/03 01:16:53;;;;;;;2.25;2.03;;;19.30;53.80;;;;;;5096168;28;20066;-73
2022/06/03 01:19:50;;;;;;;3.35;1.75;;;19.30;53.80;;;;;;5114926;28;20035;-72
2022/06/03 01:22:21;;;;;;;2.28;2.08;;;19.30;53.80;;;;;;5115125;28;20028;-73
2022/06/03 01:25:23;;;;;;;1.77;1.58;;;19.20;53.90;;;;;;5115104;28;20340;-73
2022/06/03 01:28:07;;;;;;;3.08;1.70;;;19.10;54.00;;;;;;5096833;28;20471;-73
2022/06/03 01:31:02;;;;;;;2.72;1.90;;;19.10;54.00;;;;;;5113925;28;20081;-73
2022/06/03 01:34:15;;;;;;;2.65;1.92;;;19.10;54.20;;;;;;5115026;28;20020;-73
2022/06/03 01:37:07;;;;;;;1.63;1.52;;;19.10;54.10;;;;;;5032498;28;20076;-73
2022/06/03 01:39:48;;;;;;;1.77;1.67;;;19.00;54.30;;;;;;5076430;28;20384;-72
2022/06/03 01:42:32;;;;;;;2.67;2.08;;;19.00;54.30;;;;;;5108973;28;20420;-73
2022/06/03 01:45:20;;;;;;;2.08;1.75;;;19.00;54.50;;;;;;5099610;27;20056;-72
2022/06/03 01:48:11;;;;;;;2.53;1.80;;;18.90;54.50;;;;;;5116790;27;20035;-73
2022/06/03 01:51:14;;;;;;;6.07;1.80;;;18.90;54.60;;;;;;5117695;27;20378;-72
2022/06/03 01:54:07;;;;;;;3.60;1.80;;;18.90;54.50;;;;;;5114255;28;20056;-73
2022/06/03 01:56:58;;;;;;;2.30;1.80;;;18.90;54.70;;;;;;5096795;28;20043;-73
2022/06/03 01:59:36;;;;;;;3.20;1.85;;;18.90;54.90;;;;;;5086557;28;20027;-72
2022/06/03 02:02:29;;;;;;;3.75;1.88;;;18.80;55.00;;;;;;5112928;28;20032;-72
2022/06/03 02:05:46;;;;;;;5.13;2.05;;;18.80;55.20;;;;;;5095359;28;20031;-73
2022/06/03 02:08:53;;;;;;;2.10;1.90;;;18.80;55.30;;;;;;5084021;28;20032;-73
2022/06/03 02:11:39;;;;;;;1.70;1.60;;;18.80;54.90;;;;;;5106470;28;20031;-73
2022/06/03 02:14:25;;;;;;;4.07;2.00;;;18.80;55.20;;;;;;5114123;28;20024;-73
2022/06/03 02:17:17;;;;;;;3.88;1.98;;;18.70;55.40;;;;;;5094818;28;20036;-72
2022/06/03 02:20:21;;;;;;;3.20;1.73;;;18.70;55.40;;;;;;5113993;28;20069;-72
2022/06/03 02:23:06;;;;;;;1.85;1.70;;;18.70;55.50;;;;;;5095708;28;20051;-72
2022/06/03 02:26:19;;;;;;;2.75;2.20;;;18.70;55.50;;;;;;5113172;28;20045;-73
2022/06/03 02:32:35;;;;;;;4.05;2.13;;;18.70;55.80;;;;;;5083998;28;20035;-72
2022/06/03 02:35:33;;;;;;;2.30;1.92;;;18.70;55.50;;;;;;5113066;28;20031;-72
2022/06/03 02:38:36;;;;;;;3.25;1.95;;;18.70;55.60;;;;;;5113721;28;20065;-72
2022/06/03 02:41:39;;;;;;;2.10;1.65;;;18.60;55.70;;;;;;5094829;28;20383;-72
2022/06/03 02:44:48;;;;;;;1.83;1.52;;;18.60;55.70;;;;;;5091698;28;20076;-72
2022/06/03 02:47:52;;;;;;;2.10;1.90;;;18.60;55.60;;;;;;5106233;28;20030;-72
2022/06/03 02:50:20;;;;;;;2.10;1.90;;;18.50;55.70;;;;;;5113409;28;20417;-73
2022/06/03 02:53:37;;;;;;;2.75;2.13;;;18.60;55.70;;;;;;5113223;28;20394;-72
2022/06/03 02:56:31;;;;;;;2.83;2.10;;;18.50;55.80;;;;;;5026246;28;20126;-72
2022/06/03 02:59:11;;;;;;;3.43;1.60;;;18.50;55.90;;;;;;5015839;28;20081;-72
2022/06/03 03:01:49;;;;;;;4.35;2.17;;;18.50;56.00;;;;;;5010414;28;20034;-73
2022/06/03 03:04:32;;;;;;;2.20;2.00;;;18.50;56.30;;;;;;4994378;28;20113;-72
2022/06/03 03:07:19;;;;;;;2.40;2.03;;;18.40;56.20;;;;;;4990539;28;20482;-72
2022/06/03 03:10:01;;;;;;;2.10;1.80;;;18.40;56.10;;;;;;4974048;28;20108;-72
2022/06/03 03:13:02;;;;;;;4.95;2.00;;;18.40;56.20;;;;;;4991322;28;20470;-72
2022/06/03 03:15:49;;;;;;;3.92;2.00;;;18.40;56.40;;;;;;5007279;28;20037;-72
2022/06/03 03:18:23;;;;;;;2.40;2.00;;;18.40;56.40;;;;;;4977350;28;20038;-72
2022/06/03 03:21:30;;;;;;;2.50;2.10;;;18.40;56.50;;;;;;4993722;28;20113;-72
2022/06/03 03:24:33;;;;;;;2.65;2.08;;;18.40;56.70;;;;;;4993838;28;20478;-72
2022/06/03 03:27:16;;;;;;;2.55;2.30;;;18.40;56.70;;;;;;4977455;28;20153;-72
2022/06/03 03:29:54;;;;;;;4.18;2.40;;;18.40;57.50;;;;;;4984476;28;20486;-72
2022/06/03 03:32:53;;;;;;;3.00;2.03;;;18.40;56.90;;;;;;5105917;28;20059;-72
2022/06/03 03:35:40;;;;;;;6.63;2.40;;;18.40;57.00;;;;;;5115559;28;20019;-72
2022/06/03 03:38:35;;;;;;;5.00;2.60;;;18.40;57.30;;;;;;5115755;28;20028;-72
2022/06/03 03:41:13;;;;;;;3.40;2.15;;;18.50;57.70;;;;;;5095418;28;20107;-72
2022/06/03 03:44:19;;;;;;;3.60;2.38;;;18.50;57.80;;;;;;5095358;28;20141;-72
2022/06/03 03:47:06;;;;;;;2.95;2.47;;;18.50;57.90;;;;;;5094958;28;20494;-72
2022/06/03 03:50:01;;;;;;;2.60;1.98;;;18.60;57.30;;;;;;5077246;28;20221;-72
2022/06/03 03:55:47;;;;;;;4.40;2.50;;;18.60;57.30;;;;;;5070094;28;20375;-72
2022/06/03 03:58:51;;;;;;;2.10;1.90;;;18.70;57.20;;;;;;5070418;28;20032;-72
2022/06/03 04:01:26;;;;;;;2.90;2.00;;;18.70;57.10;;;;;;5084925;28;20029;-72
2022/06/03 04:04:23;;;;;;;3.20;2.00;;;18.70;57.10;;;;;;5063714;28;20029;-72
2022/06/03 04:07:04;;;;;;;3.22;2.20;;;18.80;57.30;;;;;;5050284;28;20021;-72
2022/06/03 04:10:10;;;;;;;3.95;2.10;;;18.80;57.20;;;;;;5050433;28;20017;-71
2022/06/03 04:13:14;;;;;;;2.35;2.05;;;18.90;57.10;;;;;;5050071;28;20044;-72
2022/06/03 04:15:49;;;;;;;3.40;2.30;;;18.90;57.10;;;;;;5055311;28;20047;-72
2022/06/03 04:18:48;;;;;;;2.22;1.98;;;19.00;57.10;;;;;;5070000;28;20029;-72
2022/06/03 04:21:43;;;;;;;3.47;1.80;;;19.10;57.10;;;;;;5068646;28;20025;-72
2022/06/03 04:24:48;;;;;;;2.25;2.05;;;19.20;57.00;;;;;;5069860;28;20033;-72
2022/06/03 04:27:14;;;;;;;2.75;2.08;;;19.20;56.90;;;;;;5068594;28;20027;-72
2022/06/03 04:29:58;;;;;;;3.92;2.80;;;19.30;56.80;;;;;;5069428;28;20028;-72
2022/06/03 04:32:57;;;;;;;5.68;2.65;;;19.30;56.80;;;;;;5066360;28;20529;-72
2022/06/03 04:36:00;;;;;;;5.18;2.30;;;19.40;57.00;;;;;;5068253;28;20151;-72
2022/06/03 04:38:56;;;;;;;3.20;2.40;;;19.50;57.00;;;;;;5069593;28;20029;-72
2022/06/03 04:41:30;;;;;;;3.67;2.22;;;19.50;57.00;;;;;;5054153;28;20484;-71
2022/06/03 04:44:05;;;;;;;3.15;2.30;;;19.60;56.70;;;;;;5069254;28;20039;-72
2022/06/03 04:46:56;;;;;;;5.55;3.20;;;19.70;56.80;;;;;;5069609;28;20029;-72
2022/06/03 04:49:34;;;;;;;4.65;3.15;;;19.80;56.60;;;;;;5085012;28;20032;-72
2022/06/03 04:52:02;;;;;;;5.85;3.00;;;19.80;56.20;;;;;;5084899;28;20025;-72
2022/06/03 04:54:47;;;;;;;3.78;2.60;;;19.90;56.10;;;;;;5090366;28;20062;-72
2022/06/03 04:57:31;;;;;;;6.63;3.20;;;19.90;56.50;;;;;;5090968;28;20467;-72
2022/06/03 05:00:08;;;;;;;3.60;2.78;;;20.00;56.40;;;;;;5106923;28;20445;-72
2022/06/03 05:03:02;;;;;;;6.50;2.80;;;20.10;56.20;;;;;;5109854;28;20368;-72
2022/06/03 05:06:06;;;;;;;4.82;3.00;;;20.10;56.00;;;;;;5103303;28;20024;-72
2022/06/03 05:09:05;;;;;;;6.57;3.17;;;20.20;55.90;;;;;;5077916;28;20456;-72
2022/06/03 05:12:02;;;;;;;4.97;2.60;;;20.30;55.60;;;;;;5094137;28;20031;-72
2022/06/03 05:14:58;;;;;;;9.75;2.85;;;20.40;55.60;;;;;;5037473;28;20171;-72
2022/06/03 05:17:43;;;;;;;7.30;4.30;;;20.50;55.70;;;;;;5055277;28;20086;-72
2022/06/03 05:20:32;;;;;;;11.75;5.47;;;20.60;55.40;;;;;;5042637;28;20028;-72
2022/06/03 05:23:25;;;;;;;10.27;5.20;;;20.70;55.00;;;;;;5092594;28;20143;-72
2022/06/03 05:26:13;;;;;;;11.93;5.80;;;20.80;54.60;;;;;;5095001;28;20539;-72
2022/06/03 05:29:03;;;;;;;12.07;5.75;;;20.80;54.30;;;;;;5059823;28;20052;-72
2022/06/03 05:32:00;;;;;;;11.95;5.80;;;21.00;54.10;;;;;;5088172;28;20024;-72
2022/06/03 05:34:53;;;;;;;10.13;5.15;;;21.00;54.30;;;;;;5095315;28;20024;-72
2022/06/03 05:37:22;;;;;;;8.93;5.20;;;21.10;53.30;;;;;;5095290;28;20035;-72
2022/06/03 05:40:12;;;;;;;13.43;5.50;;;21.20;53.20;;;;;;5093239;28;20797;-72
2022/06/03 05:43:04;;;;;;;9.85;5.47;;;21.30;52.90;;;;;;5095134;28;20077;-72
2022/06/03 05:45:42;;;;;;;7.03;4.95;;;21.40;52.90;;;;;;5075695;28;20040;-72
2022/06/03 05:48:20;;;;;;;8.73;4.97;;;21.50;52.80;;;;;;5076726;28;20020;-72
2022/06/03 05:51:14;;;;;;;7.72;4.65;;;21.60;52.60;;;;;;5086031;28;20103;-72
2022/06/03 05:54:17;;;;;;;8.70;4.70;;;21.70;52.40;;;;;;5074244;28;20493;-72
2022/06/03 05:56:52;;;;;;;9.75;4.55;;;21.80;52.30;;;;;;5061683;28;20115;-72
2022/06/03 05:59:26;;;;;;;8.88;4.50;;;21.90;51.90;;;;;;5086100;28;20031;-72
2022/06/03 06:02:16;;;;;;;11.23;4.78;;;22.00;51.60;;;;;;5093031;28;20060;-72
2022/06/03 06:04:53;;;;;;;14.57;5.57;;;22.00;51.10;;;;;;5076493;28;20451;-73
2022/06/03 06:07:26;;;;;;;11.48;5.32;;;22.10;51.00;;;;;;5094406;28;20486;-72
2022/06/03 06:10:19;;;;;;;10.77;5.00;;;22.20;50.50;;;;;;5093204;28;20451;-72
2022/06/03 06:13:20;;;;;;;13.32;4.22;;;22.20;50.40;;;;;;5094171;28;20115;-72
2022/06/03 06:16:08;;;;;;;12.05;5.05;;;22.30;50.50;;;;;;5094776;28;20379;-72
2022/06/03 06:18:52;;;;;;;9.10;3.70;;;22.40;50.60;;;;;;5075560;28;20035;-72
2022/06/03 06:21:52;;;;;;;11.23;4.13;;;22.50;50.30;;;;;;5074883;28;20043;-72
2022/06/03 06:24:51;;;;;;;8.43;3.85;;;22.50;50.00;;;;;;5093109;28;20104;-72
2022/06/03 06:27:41;;;;;;;11.90;4.25;;;22.60;49.90;;;;;;5075865;28;20028;-72
2022/06/03 06:30:33;;;;;;;8.30;3.95;;;22.70;49.40;;;;;;5092453;28;20042;-73
2022/06/03 06:33:33;;;;;;;12.07;3.90;;;22.80;49.20;;;;;;5056885;28;20036;-72
2022/06/03 06:36:37;;;;;;;11.27;5.25;;;22.90;49.40;;;;;;5076135;28;20044;-72
2022/06/03 06:39:11;;;;;;;10.07;4.25;;;22.90;48.80;;;;;;5076224;28;20472;-72
2022/06/03 06:41:40;;;;;;;10.13;5.00;;;23.00;48.60;;;;;;5093018;28;20035;-72
2022/06/03 06:44:13;;;;;;;7.82;4.63;;;23.00;48.10;;;;;;5094270;28;20106;-72
2022/06/03 06:47:21;;;;;;;9.10;4.88;;;23.10;48.20;;;;;;5094265;28;20028;-72
2022/06/03 06:50:19;;;;;;;8.52;4.43;;;23.20;48.30;;;;;;5084014;28;20067;-72
2022/06/03 06:53:12;;;;;;;12.98;5.10;;;23.20;48.00;;;;;;5075662;28;20020;-72
2022/06/03 06:56:02;;;;;;;14.52;4.75;;;23.30;47.80;;;;;;5094130;28;20044;-72
2022/06/03 06:58:50;;;;;;;8.82;4.18;;;23.30;47.10;;;;;;5092874;28;20376;-72
2022/06/03 07:01:29;;;;;;;9.30;3.95;;;23.40;47.60;;;;;;5092307;28;20028;-71
2022/06/03 07:04:08;;;;;;;6.97;3.80;;;23.50;47.00;;;;;;5093505;28;20376;-72
2022/06/03 07:06:50;;;;;;;7.45;4.05;;;23.50;47.10;;;;;;5075697;28;20020;-72
2022/06/03 07:09:24;;;;;;;7.43;4.38;;;23.60;47.00;;;;;;5093775;28;20024;-72
2022/06/03 07:12:05;;;;;;;13.00;4.72;;;23.70;46.90;;;;;;5073854;28;20024;-72
2022/06/03 07:14:35;;;;;;;11.52;4.88;;;23.80;47.20;;;;;;5093675;28;20036;-72
2022/06/03 07:20:07;;;;;;;5.80;3.13;;;23.80;46.60;;;;;;5091733;28;20433;-72
2022/06/03 07:22:47;;;;;;;;;;;23.90;46.60;;;;;;5093761;28;20032;-72
2022/06/03 07:25:31;;;;;;;4.65;2.85;;;24.00;47.10;;;;;;5074400;28;19904;-72
2022/06/03 07:28:02;;;;;;;9.80;4.13;;;24.10;45.70;;;;;;5075257;28;20028;-72
2022/06/03 07:30:38;;;;;;;5.93;2.70;;;24.20;45.80;;;;;;5088651;28;20107;-72
2022/06/03 07:33:06;;;;;;;8.93;3.28;;;24.40;45.90;;;;;;5072929;28;20376;-72
2022/06/03 07:35:41;;;;;;;5.78;3.53;;;24.50;45.70;;;;;;5055102;28;20043;-72
2022/06/03 07:38:21;;;;;;;8.82;3.40;;;24.70;45.40;;;;;;5072910;28;20029;-72
2022/06/03 07:41:05;;;;;;;5.07;3.33;;;24.90;45.10;;;;;;5082850;28;20020;-72
2022/06/03 07:43:40;;;;;;;8.32;3.63;;;25.20;45.10;;;;;;5093144;28;20032;-72
2022/06/03 07:46:08;;;;;;;7.45;4.10;;;25.40;44.60;;;;;;5093251;28;20032;-72
2022/06/03 07:48:36;;;;;;;6.80;3.42;;;25.70;44.00;;;;;;5080548;28;20031;-72
2022/06/03 07:51:31;;;;;;;6.63;4.05;;;25.90;43.70;;;;;;5066748;28;20077;-72
2022/06/03 07:54:05;;;;;;;7.25;3.40;;;26.00;43.40;;;;;;5092469;28;20060;-72
2022/06/03 07:56:37;;;;;;;5.63;3.50;;;26.10;43.50;;;;;;5064166;28;20476;-72
2022/06/03 07:59:09;;;;;;;7.70;3.95;;;26.20;43.00;;;;;;5079697;28;20052;-72
2022/06/03 08:01:38;;;;;;;10.57;3.17;;;26.30;42.90;;;;;;5087443;28;20411;-72
2022/06/03 08:04:08;;;;;;;3.65;2.65;;;26.40;42.90;;;;;;5074989;28;20449;-72
2022/06/03 08:12:12;;;;;;;3.63;2.80;;;26.40;42.40;;;;;;5078455;28;20085;-72
2022/06/03 08:14:38;;;;;;;8.20;2.90;;;26.50;42.20;;;;;;5074769;28;20047;-72
2022/06/03 08:17:08;;;;;;;6.00;3.45;;;26.40;42.00;;;;;;5074819;28;20028;-72
2022/06/03 08:19:37;;;;;;;4.38;3.08;;;26.40;42.50;;;;;;5092878;28;20031;-72
2022/06/03 08:22:08;;;;;;;3.88;2.72;;;26.40;42.20;;;;;;5050628;28;20032;-72
2022/06/03 08:24:47;;;;;;;9.38;2.35;;;26.40;42.50;;;;;;5066394;28;20029;-72
2022/06/03 08:27:24;;;;;;;5.13;2.70;;;26.30;42.60;;;;;;5052410;28;20083;-72
2022/06/03 08:29:57;;;;;;;4.88;2.92;;;26.30;42.20;;;;;;5034233;28;20480;-72
2022/06/03 08:32:30;;;;;;;5.20;3.40;;;26.40;42.60;;;;;;5057343;28;20032;-73
2022/06/03 08:34:59;;;;;;;8.30;4.13;;;26.30;43.00;;;;;;5050867;28;20148;-72
2022/06/03 08:37:56;;;;;;;8.60;4.30;;;26.40;43.00;;;;;;5061859;28;20025;-73
2022/06/03 08:41:00;;;;;;;5.68;3.65;;;26.40;42.80;;;;;;5046445;28;20036;-73
2022/06/03 08:43:29;;;;;;;;;;;26.40;43.00;;;;;;5056597;28;20128;-72
2022/06/03 08:46:04;;;;;;;6.32;3.25;;;26.50;43.50;;;;;;5058248;28;19909;-72
2022/06/03 08:48:37;;;;;;;5.65;2.70;;;26.50;42.90;;;;;;5075655;28;20353;-72
2022/06/03 08:51:09;;;;;;;7.40;3.17;;;26.50;42.60;;;;;;5073283;28;20039;-72
2022/06/03 08:54:08;;;;;;;6.57;3.35;;;26.60;42.60;;;;;;5069675;28;20044;-72
2022/06/03 08:56:40;;;;;;;4.70;2.40;;;26.60;42.80;;;;;;5057082;28;20139;-73
2022/06/03 08:59:16;;;;;;;2.60;2.30;;;26.60;42.20;;;;;;5055323;28;20028;-72
2022/06/03 09:01:54;;;;;;;6.18;2.60;;;26.70;42.60;;;;;;5069164;28;20516;-71
2022/06/03 09:04:30;;;;;;;6.30;2.00;;;26.70;42.70;;;;;;5065685;28;20025;-72
2022/06/03 09:07:07;;;;;;;3.15;1.88;;;26.80;42.40;;;;;;5075942;28;20029;-72
2022/06/03 09:10:15;;;;;;;3.83;2.03;;;26.90;42.50;;;;;;5042196;28;20016;-72
2022/06/03 09:13:15;;;;;;;4.32;2.88;;;26.90;42.50;;;;;;5071819;28;20472;-71
2022/06/03 09:15:45;;;;;;;3.97;2.40;;;27.00;42.30;;;;;;5074843;28;20545;-72
2022/06/03 09:18:56;;;;;;;6.63;3.00;;;27.00;42.60;;;;;;5074661;28;20500;-73
2022/06/03 09:21:31;;;;;;;6.45;2.92;;;27.10;42.70;;;;;;5063047;28;20043;-72
2022/06/03 09:24:09;;;;;;;10.10;3.72;;;27.20;42.90;;;;;;5075651;28;20028;-71
2022/06/03 09:26:57;;;;;;;11.75;4.22;;;27.30;42.30;;;;;;5072113;28;20052;-72
2022/06/03 09:29:24;;;;;;;5.50;3.67;;;27.30;42.00;;;;;;5075517;28;20428;-72
2022/06/03 09:32:00;;;;;;;5.78;3.28;;;27.30;41.80;;;;;;5071090;28;20444;-72
2022/06/03 09:35:04;;;;;;;4.05;2.65;;;27.30;42.00;;;;;;5072511;28;20028;-72
2022/06/03 09:37:34;;;;;;;4.85;2.55;;;27.40;42.40;;;;;;5075075;28;20103;-72
2022/06/03 09:40:03;;;;;;;3.88;2.70;;;27.40;42.10;;;;;;5075297;28;20380;-72
2022/06/03 09:42:31;;;;;;;10.73;2.80;;;27.50;41.80;;;;;;5056510;28;20370;-72
2022/06/03 09:45:02;;;;;;;2.10;1.73;;;27.60;41.90;;;;;;5064459;28;20028;-72
2022/06/03 09:47:29;;;;;;;2.28;2.08;;;27.70;41.90;;;;;;5069430;28;20032;-72
2022/06/03 09:49:55;;;;;;;3.63;2.30;;;27.80;41.20;;;;;;5071228;28;20052;-72
2022/06/03 09:52:26;;;;;;;3.28;2.03;;;27.80;41.50;;;;;;5055271;28;20074;-73
2022/06/03 09:54:54;;;;;;;6.10;3.95;;;27.80;41.30;;;;;;5068053;28;20054;-72
2022/06/03 09:57:41;;;;;;;4.53;3.50;;;27.90;41.50;;;;;;5051261;28;20525;-73
2022/06/03 10:00:23;;;;;;;2.85;2.00;;;28.00;41.40;;;;;;5072911;28;20016;-73
2022/06/03 10:02:49;;;;;;;3.47;2.30;;;28.10;40.90;;;;;;5065745;28;20094;-72
2022/06/03 10:05:18;;;;;;;4.68;2.90;;;28.10;40.70;;;;;;5086373;28;20111;-72
2022/06/03 10:07:45;;;;;;;9.07;3.53;;;28.20;40.70;;;;;;5067684;28;20024;-72
2022/06/03 10:13:03;;;;;;;10.02;2.70;;;28.30;40.70;;;;;;5055767;28;20082;-73
2022/06/03 10:15:40;;;;;;;8.38;2.70;;;28.30;40.30;;;;;;5077701;28;20036;-72
2022/06/03 10:18:20;;;;;;;6.50;2.50;;;28.40;40.60;;;;;;5067299;28;21832;-72
2022/06/03 10:20:51;;;;;;;9.15;2.00;;;28.40;40.20;;;;;;5083531;28;20408;-72
2022/06/03 10:23:23;;;;;;;3.75;1.83;;;28.50;40.10;;;;;;5064278;28;20032;-72
2022/06/03 10:25:52;;;;;;;3.15;2.00;;;28.50;40.00;;;;;;5064679;28;20074;-73
2022/06/03 10:28:19;;;;;;;2.60;2.00;;;28.50;40.00;;;;;;5067097;28;20059;-72
2022/06/03 10:30:57;;;;;;;4.43;2.13;;;28.60;40.00;;;;;;5071868;28;20460;-72
2022/06/03 10:33:23;;;;;;;5.82;2.50;;;28.60;39.90;;;;;;5065581;28;20059;-72
2022/06/03 10:35:50;;;;;;;7.00;2.00;;;28.70;39.80;;;;;;5050566;28;20044;-72
2022/06/03 10:38:21;;;;;;;2.70;2.15;;;28.70;39.60;;;;;;5069723;28;20074;-72
2022/06/03 10:40:52;;;;;;;2.67;2.03;;;28.70;39.70;;;;;;5068784;28;20052;-72
2022/06/03 10:43:32;;;;;;;3.25;1.80;;;28.80;39.60;;;;;;5044045;28;20036;-74
2022/06/03 10:46:13;;;;;;;2.22;1.88;;;28.80;39.40;;;;;;5040584;28;20035;-72
2022/06/03 10:48:40;;;;;;;3.58;2.22;;;28.90;39.80;;;;;;5073605;28;20419;-72
2022/06/03 11:02:36;;;;;;;2.92;1.85;;;29.10;38.70;;;;;;5066504;28;20032;-72
2022/06/03 11:05:11;;;;;;;3.30;1.75;;;29.10;38.90;;;;;;5064102;28;20029;-72
2022/06/03 11:07:37;;;;;;;2.65;1.80;;;29.20;38.80;;;;;;5070002;28;20732;-72
2022/06/03 11:10:14;;;;;;;1.80;1.50;;;29.20;38.80;;;;;;5049808;28;20065;-72
2022/06/03 11:12:42;;;;;;;4.88;1.50;;;29.20;38.40;;;;;;5072719;28;20028;-72
2022/06/03 11:15:31;;;;;;;7.28;2.20;;;29.30;38.30;;;;;;5079537;28;20039;-72
2022/06/03 11:17:59;;;;;;;6.75;1.75;;;29.30;38.40;;;;;;5065359;28;20036;-72
2022/06/03 11:20:39;;;;;;;1.88;1.75;;;29.40;38.50;;;;;;5069647;28;20060;-72
2022/06/03 11:23:07;;;;;;;3.20;1.60;;;29.50;38.20;;;;;;5049948;28;20028;-72
2022/06/03 11:25:40;;;;;;;3.45;1.60;;;29.50;38.20;;;;;;5070784;28;20029;-72
2022/06/03 11:28:12;;;;;;;4.78;1.83;;;29.60;38.40;;;;;;5075625;28;20111;-72
2022/06/03 11:31:00;;;;;;;4.65;1.60;;;29.60;38.00;;;;;;5073969;28;20302;-72
2022/06/03 11:33:37;;;;;;;3.45;1.77;;;29.70;38.00;;;;;;5074699;28;20468;-72
2022/06/03 11:36:17;;;;;;;3.65;2.10;;;29.80;37.40;;;;;;5067642;28;20025;-72
2022/06/03 11:38:55;;;;;;;3.20;1.75;;;29.80;37.50;;;;;;5050991;28;20036;-72
2022/06/03 11:41:26;;;;;;;3.30;1.60;;;29.90;37.80;;;;;;5071623;28;20021;-71
2022/06/03 11:44:29;;;;;;;6.25;1.92;;;29.90;36.90;;;;;;5054131;28;20419;-72
2022/06/03 11:47:00;;;;;;;1.90;1.35;;;30.00;36.60;;;;;;5057361;28;20074;-72
2022/06/03 11:49:26;;;;;;;2.35;1.70;;;30.00;36.70;;;;;;5061534;28;20082;-73
2022/06/03 11:51:53;;;;;;;2.45;1.52;;;30.10;36.90;;;;;;5053926;28;20035;-72
2022/06/03 11:54:23;;;;;;;3.60;1.67;;;30.10;37.20;;;;;;5069299;28;20076;-73
2022/06/03 11:56:50;;;;;;;3.15;1.50;;;30.10;36.80;;;;;;5060381;28;20025;-73
2022/06/03 12:00:02;;;;;;;2.53;1.70;;;30.20;36.80;;;;;;5071529;28;20036;-73
2022/06/03 12:02:28;;;;;;;2.92;1.80;;;30.20;36.70;;;;;;4990868;28;20045;-71
2022/06/03 12:05:09;;;;;;;2.30;1.60;;;30.30;36.40;;;;;;4990646;28;20038;-72
2022/06/03 12:07:53;;;;;;;1.77;1.55;;;30.40;36.50;;;;;;5006593;28;20171;-71
2022/06/03 12:10:39;;;;;;;2.05;1.67;;;30.40;35.90;;;;;;4991086;28;20054;-72
2022/06/03 12:13:28;;;;;;;7.32;1.55;;;30.50;35.80;;;;;;4997876;28;20119;-72
2022/06/03 12:16:04;;;;;;;5.53;2.05;;;30.50;35.90;;;;;;5012806;28;20083;-72
2022/06/03 12:18:39;;;;;;;3.53;1.80;;;30.60;36.20;;;;;;4974968;28;20023;-72
2022/06/03 12:21:09;;;;;;;3.78;1.77;;;30.70;35.80;;;;;;4975646;28;20031;-72
2022/06/03 12:23:43;;;;;;;6.78;2.30;;;30.70;35.50;;;;;;4959153;28;20042;-72
2022/06/03 12:26:24;;;;;;;2.17;1.40;;;30.80;35.70;;;;;;5001733;28;20409;-72
2022/06/03 12:28:59;;;;;;;3.45;1.65;;;30.90;35.80;;;;;;4997541;28;20502;-72
2022/06/03 12:31:42;;;;;;;2.25;1.58;;;31.00;35.60;;;;;;5030424;28;20490;-72
2022/06/03 12:34:22;;;;;;;4.00;1.58;;;31.10;35.60;;;;;;4996090;28;20046;-72
2022/06/03 12:36:51;;;;;;;1.73;1.63;;;31.30;35.20;;;;;;5001793;28;20042;-72
2022/06/03 12:39:53;;;;;;;5.03;1.45;;;31.50;35.00;;;;;;5026740;28;20452;-72
2022/06/03 12:42:28;;;;;;;3.53;1.50;;;31.60;34.80;;;;;;5075009;28;20107;-72
2022/06/03 12:45:14;;;;;;;1.58;1.45;;;31.80;34.00;;;;;;5076464;28;20439;-72
2022/06/03 12:47:44;;;;;;;2.35;1.80;;;31.90;34.10;;;;;;5059782;28;20040;-72
2022/06/03 12:50:29;;;;;;;2.92;1.80;;;32.00;34.00;;;;;;5038129;28;20028;-72
2022/06/03 12:53:22;;;;;;;1.70;1.33;;;32.00;33.70;;;;;;5056094;28;20116;-72
2022/06/03 12:55:59;;;;;;;2.57;2.00;;;32.00;34.00;;;;;;5045964;28;20052;-72
2022/06/03 12:58:43;;;;;;;2.85;1.65;;;32.00;33.40;;;;;;5073317;28;20033;-72
2022/06/03 13:01:11;;;;;;;3.35;2.20;;;32.00;34.10;;;;;;5078130;28;20467;-72
2022/06/03 13:03:39;;;;;;;2.80;1.90;;;32.10;33.90;;;;;;5057680;28;20484;-72
2022/06/03 13:06:08;;;;;;;5.35;2.10;;;32.10;33.70;;;;;;5088875;28;20043;-72
2022/06/03 13:08:34;;;;;;;3.90;1.88;;;32.10;34.00;;;;;;5075226;28;20028;-72
2022/06/03 13:11:22;;;;;;;2.83;1.90;;;32.20;34.20;;;;;;5094964;28;20460;-72
2022/06/03 13:14:06;;;;;;;2.90;1.85;;;32.30;34.10;;;;;;5075997;28;20046;-72
2022/06/03 13:16:36;;;;;;;6.55;2.25;;;32.40;33.30;;;;;;5096217;28;20024;-72
2022/06/03 13:19:34;;;;;;;5.32;1.55;;;32.50;33.10;;;;;;5094205;28;20017;-72
2022/06/03 13:22:09;;;;;;;5.22;1.80;;;32.60;34.00;;;;;;5061634;28;20033;-72
2022/06/03 13:24:40;;;;;;;2.03;1.55;;;32.80;33.50;;;;;;5072060;28;20114;-73
2022/06/03 13:27:41;;;;;;;4.10;1.70;;;33.10;33.20;;;;;;5077287;28;20113;-73
2022/06/03 13:30:15;;;;;;;3.65;1.85;;;33.40;32.80;;;;;;5075437;28;20021;-73
2022/06/03 13:33:00;;;;;;;4.00;1.98;;;33.90;32.40;;;;;;5093917;28;20032;-72
2022/06/03 13:35:32;;;;;;;2.60;1.80;;;34.40;31.50;;;;;;5073209;28;20384;-72
2022/06/03 13:38:22;;;;;;;1.95;1.70;;;34.90;30.90;;;;;;5045942;28;20127;-72
2022/06/03 13:43:32;;;;;;;4.22;1.83;;;36.00;31.00;;;;;;5072997;28;20434;-72
2022/06/03 13:46:00;;;;;;;3.72;1.88;;;36.60;29.20;;;;;;5069742;28;20033;-72
2022/06/03 13:48:33;;;;;;;2.33;1.65;;;37.00;29.00;;;;;;5053378;28;20384;-72
2022/06/03 13:51:17;;;;;;;2.13;1.58;;;37.60;28.70;;;;;;5062614;28;20029;-72
2022/06/03 13:53:52;;;;;;;2.50;1.50;;;38.00;28.60;;;;;;5051640;28;20139;-72
2022/06/03 13:56:25;;;;;;;3.53;1.70;;;38.40;27.40;;;;;;5056173;28;20028;-72
2022/06/03 13:58:51;;;;;;;7.15;2.25;;;38.70;26.80;;;;;;5074622;28;20029;-72
2022/06/03 14:01:28;;;;;;;2.67;1.80;;;38.80;26.40;;;;;;5074177;28;20029;-72
2022/06/03 14:04:07;;;;;;;1.95;1.70;;;39.00;26.70;;;;;;5056783;28;20485;-72
2022/06/03 14:06:37;;;;;;;3.30;1.90;;;39.10;26.10;;;;;;5088450;28;20024;-72
2022/06/03 14:09:16;;;;;;;2.75;1.50;;;39.20;25.90;;;;;;5094659;28;20024;-73
2022/06/03 14:11:55;;;;;;;2.55;1.73;;;39.20;25.90;;;;;;5069560;28;20035;-72
2022/06/03 14:14:35;;;;;;;3.45;2.03;;;39.10;25.40;;;;;;5094895;28;20073;-72
2022/06/03 14:17:10;;;;;;;2.08;1.88;;;39.00;26.00;;;;;;5092019;28;20078;-73
2022/06/03 14:19:51;;;;;;;1.98;1.67;;;38.90;25.80;;;;;;5076641;28;20027;-72
2022/06/03 14:22:35;;;;;;;4.22;2.08;;;38.80;25.90;;;;;;5076613;28;20028;-73
2022/06/03 14:25:48;;;;;;;2.30;2.10;;;38.70;25.80;;;;;;5078179;28;20522;-73
2022/06/03 14:28:40;;;;;;;4.00;1.90;;;38.60;25.70;;;;;;4981632;28;20383;-72
2022/06/03 14:31:22;;;;;;;2.33;1.83;;;38.50;26.00;;;;;;5052686;28;20178;-72
2022/06/03 14:33:53;;;;;;;3.90;1.90;;;38.30;25.60;;;;;;5056285;28;20121;-72
2022/06/03 14:36:19;;;;;;;3.83;2.03;;;38.20;25.80;;;;;;5056220;28;20025;-72
2022/06/03 14:38:47;;;;;;;3.17;1.90;;;38.10;25.90;;;;;;5056836;28;20161;-72
2022/06/03 14:41:41;;;;;;;6.03;2.58;;;38.00;26.10;;;;;;5090986;28;20454;-72